sensor_id;sensor_type;location;lat;lon;timestamp;P1;durP1;ratioP1;P2;durP2;ratioP2
15637;SDS011;26604;53.596;10.042;2024-03-02T00:00:34;21.75;;;11.50;;
15637;SDS011;26604;53.596;10.042;2024-03-02T00:03:01;18.42;;;11.20;;
15637;SDS011;26604;53.596;10.042;2024-03-02T00:05:29;20.20;;;11.68;;
15637;SDS011;26604;53.596;10.042;2024-03-02T00:07:58;23.25;;;12.70;;
15637;SDS011;26604;53.596;10.042;2024-03-02T00:10:25;23.67;;;12.25;;
15637;SDS011;26604;53.596;10.042;2024-03-02T00:12:56;24.13;;;12.40;;
15637;SDS011;26604;53.596;10.042;2024-03-02T00:15:32;23.90;;;12.85;;
15637;SDS011;26604;53.596;10.042;2024-03-02T00:18:12;23.90;;;12.82;;
15637;SDS011;26604;53.596;10.042;2024-03-02T00:20:40;22.83;;;13.02;;
15637;SDS011;26604;53.596;10.042;2024-03-02T00:23:09;22.67;;;12.85;;
15637;SDS011;26604;53.596;10.042;2024-03-02T00:25:40;21.58;;;12.32;;
15637;SDS011;26604;53.596;10.042;2024-03-02T00:28:13;30.83;;;13.55;;
15637;SDS011;26604;53.596;10.042;2024-03-02T00:30:57;28.63;;;13.77;;
15637;SDS011;26604;53.596;10.042;2024-03-02T00:33:26;41.70;;;19.15;;
15637;SDS011;26604;53.596;10.042;2024-03-02T00:35:54;29.30;;;14.20;;
15637;SDS011;26604;53.596;10.042;2024-03-02T00:38:23;25.73;;;14.93;;
15637;SDS011;26604;53.596;10.042;2024-03-02T00:40:50;30.65;;;15.13;;
15637;SDS011;26604;53.596;10.042;2024-03-02T00:46:10;36.17;;;15.80;;
15637;SDS011;26604;53.596;10.042;2024-03-02T00:48:39;29.33;;;15.50;;
15637;SDS011;26604;53.596;10.042;2024-03-02T00:51:14;29.00;;;15.30;;
15637;SDS011;26604;53.596;10.042;2024-03-02T00:53:42;36.33;;;16.40;;
15637;SDS011;26604;53.596;10.042;2024-03-02T00:56:09;34.33;;;17.60;;
15637;SDS011;26604;53.596;10.042;2024-03-02T00:58:37;36.35;;;17.15;;
15637;SDS011;26604;53.596;10.042;2024-03-02T01:01:04;30.73;;;16.90;;
15637;SDS011;26604;53.596;10.042;2024-03-02T01:03:32;30.83;;;16.05;;
15637;SDS011;26604;53.596;10.042;2024-03-02T01:05:59;34.38;;;16.70;;
15637;SDS011;26604;53.596;10.042;2024-03-02T01:08:25;33.58;;;17.33;;
15637;SDS011;26604;53.596;10.042;2024-03-02T01:10:54;35.03;;;17.73;;
15637;SDS011;26604;53.596;10.042;2024-03-02T01:13:21;33.40;;;17.08;;
15637;SDS011;26604;53.596;10.042;2024-03-02T01:15:48;34.90;;;17.50;;
15637;SDS011;26604;53.596;10.042;2024-03-02T01:18:15;34.65;;;17.08;;
15637;SDS011;26604;53.596;10.042;2024-03-02T01:20:42;32.78;;;17.63;;
15637;SDS011;26604;53.596;10.042;2024-03-02T01:23:09;35.92;;;17.60;;
15637;SDS011;26604;53.596;10.042;2024-03-02T01:25:36;37.22;;;17.25;;
15637;SDS011;26604;53.596;10.042;2024-03-02T01:28:05;35.83;;;17.15;;
15637;SDS011;26604;53.596;10.042;2024-03-02T01:30:32;35.35;;;18.38;;
15637;SDS011;26604;53.596;10.042;2024-03-02T01:32:58;38.08;;;17.42;;
15637;SDS011;26604;53.596;10.042;2024-03-02T01:35:27;36.35;;;17.98;;
15637;SDS011;26604;53.596;10.042;2024-03-02T01:37:54;36.30;;;17.20;;
15637;SDS011;26604;53.596;10.042;2024-03-02T01:40:21;38.05;;;17.98;;
15637;SDS011;26604;53.596;10.042;2024-03-02T01:42:51;30.60;;;16.90;;
15637;SDS011;26604;53.596;10.042;2024-03-02T01:45:20;34.47;;;17.42;;
15637;SDS011;26604;53.596;10.042;2024-03-02T01:47:46;32.60;;;17.10;;
15637;SDS011;26604;53.596;10.042;2024-03-02T01:50:13;33.88;;;17.13;;
15637;SDS011;26604;53.596;10.042;2024-03-02T01:52:41;37.08;;;17.85;;
15637;SDS011;26604;53.596;10.042;2024-03-02T01:55:09;40.60;;;19.63;;
15637;SDS011;26604;53.596;10.042;2024-03-02T01:57:36;33.95;;;17.40;;
15637;SDS011;26604;53.596;10.042;2024-03-02T02:00:04;36.15;;;18.02;;
15637;SDS011;26604;53.596;10.042;2024-03-02T02:02:36;39.85;;;18.50;;
15637;SDS011;26604;53.596;10.042;2024-03-02T02:05:03;36.88;;;17.10;;
15637;SDS011;26604;53.596;10.042;2024-03-02T02:07:30;36.90;;;19.15;;
15637;SDS011;26604;53.596;10.042;2024-03-02T02:09:58;39.72;;;18.20;;
15637;SDS011;26604;53.596;10.042;2024-03-02T02:12:25;34.72;;;17.42;;
15637;SDS011;26604;53.596;10.042;2024-03-02T02:14:52;40.22;;;18.40;;
15637;SDS011;26604;53.596;10.042;2024-03-02T02:17:19;42.45;;;18.35;;
15637;SDS011;26604;53.596;10.042;2024-03-02T02:19:47;39.83;;;18.67;;
15637;SDS011;26604;53.596;10.042;2024-03-02T02:22:15;37.03;;;19.00;;
15637;SDS011;26604;53.596;10.042;2024-03-02T02:24:42;37.65;;;20.27;;
15637;SDS011;26604;53.596;10.042;2024-03-02T02:27:09;43.75;;;19.48;;
15637;SDS011;26604;53.596;10.042;2024-03-02T02:29:37;41.22;;;19.60;;
15637;SDS011;26604;53.596;10.042;2024-03-02T02:32:05;35.67;;;19.13;;
15637;SDS011;26604;53.596;10.042;2024-03-02T02:34:32;36.47;;;18.10;;
15637;SDS011;26604;53.596;10.042;2024-03-02T02:36:59;37.17;;;18.63;;
15637;SDS011;26604;53.596;10.042;2024-03-02T02:39:27;37.58;;;18.85;;
15637;SDS011;26604;53.596;10.042;2024-03-02T02:41:54;38.53;;;18.40;;
15637;SDS011;26604;53.596;10.042;2024-03-02T02:44:21;37.38;;;19.75;;
15637;SDS011;26604;53.596;10.042;2024-03-02T02:46:48;32.47;;;17.38;;
15637;SDS011;26604;53.596;10.042;2024-03-02T02:49:15;32.47;;;17.15;;
15637;SDS011;26604;53.596;10.042;2024-03-02T02:51:42;40.08;;;18.55;;
15637;SDS011;26604;53.596;10.042;2024-03-02T02:54:09;33.78;;;17.25;;
15637;SDS011;26604;53.596;10.042;2024-03-02T02:56:37;37.00;;;17.77;;
15637;SDS011;26604;53.596;10.042;2024-03-02T02:59:04;39.33;;;19.17;;
15637;SDS011;26604;53.596;10.042;2024-03-02T03:01:30;37.83;;;19.23;;
15637;SDS011;26604;53.596;10.042;2024-03-02T03:03:57;35.78;;;18.75;;
15637;SDS011;26604;53.596;10.042;2024-03-02T03:06:24;35.88;;;18.13;;
15637;SDS011;26604;53.596;10.042;2024-03-02T03:08:51;33.72;;;18.00;;
15637;SDS011;26604;53.596;10.042;2024-03-02T03:11:18;37.67;;;18.42;;
15637;SDS011;26604;53.596;10.042;2024-03-02T03:13:46;32.83;;;17.63;;
15637;SDS011;26604;53.596;10.042;2024-03-02T03:16:13;34.85;;;18.88;;
15637;SDS011;26604;53.596;10.042;2024-03-02T03:18:40;35.03;;;17.65;;
15637;SDS011;26604;53.596;10.042;2024-03-02T03:21:07;34.78;;;18.30;;
15637;SDS011;26604;53.596;10.042;2024-03-02T03:23:33;38.30;;;18.50;;
15637;SDS011;26604;53.596;10.042;2024-03-02T03:26:00;36.70;;;18.40;;
15637;SDS011;26604;53.596;10.042;2024-03-02T03:28:28;34.13;;;17.77;;
15637;SDS011;26604;53.596;10.042;2024-03-02T03:30:56;36.00;;;17.67;;
15637;SDS011;26604;53.596;10.042;2024-03-02T03:33:23;34.17;;;16.98;;
15637;SDS011;26604;53.596;10.042;2024-03-02T03:35:50;35.83;;;18.05;;
15637;SDS011;26604;53.596;10.042;2024-03-02T03:38:17;36.45;;;18.05;;
15637;SDS011;26604;53.596;10.042;2024-03-02T03:40:44;33.63;;;18.33;;
15637;SDS011;26604;53.596;10.042;2024-03-02T03:43:12;40.20;;;18.83;;
15637;SDS011;26604;53.596;10.042;2024-03-02T03:45:39;34.20;;;17.85;;
15637;SDS011;26604;53.596;10.042;2024-03-02T03:48:07;38.22;;;17.63;;
15637;SDS011;26604;53.596;10.042;2024-03-02T03:50:34;34.47;;;18.65;;
15637;SDS011;26604;53.596;10.042;2024-03-02T03:53:02;37.38;;;18.08;;
15637;SDS011;26604;53.596;10.042;2024-03-02T03:55:29;33.58;;;17.33;;
15637;SDS011;26604;53.596;10.042;2024-03-02T03:57:56;34.70;;;17.55;;
15637;SDS011;26604;53.596;10.042;2024-03-02T04:00:23;35.08;;;18.35;;
15637;SDS011;26604;53.596;10.042;2024-03-02T04:02:49;36.10;;;17.13;;
15637;SDS011;26604;53.596;10.042;2024-03-02T04:05:18;32.58;;;17.40;;
15637;SDS011;26604;53.596;10.042;2024-03-02T04:07:44;34.55;;;17.38;;
15637;SDS011;26604;53.596;10.042;2024-03-02T04:10:11;32.90;;;17.55;;
15637;SDS011;26604;53.596;10.042;2024-03-02T04:12:38;34.03;;;17.73;;
15637;SDS011;26604;53.596;10.042;2024-03-02T04:15:05;34.92;;;17.42;;
15637;SDS011;26604;53.596;10.042;2024-03-02T04:17:33;32.97;;;17.02;;
15637;SDS011;26604;53.596;10.042;2024-03-02T04:20:01;32.85;;;17.00;;
15637;SDS011;26604;53.596;10.042;2024-03-02T04:22:32;33.45;;;17.13;;
15637;SDS011;26604;53.596;10.042;2024-03-02T04:25:00;31.92;;;15.77;;
15637;SDS011;26604;53.596;10.042;2024-03-02T04:27:29;31.15;;;15.43;;
15637;SDS011;26604;53.596;10.042;2024-03-02T04:29:56;31.35;;;15.95;;
15637;SDS011;26604;53.596;10.042;2024-03-02T04:32:25;31.85;;;16.88;;
15637;SDS011;26604;53.596;10.042;2024-03-02T04:34:52;29.50;;;15.27;;
15637;SDS011;26604;53.596;10.042;2024-03-02T04:37:18;30.27;;;16.15;;
15637;SDS011;26604;53.596;10.042;2024-03-02T04:39:47;35.03;;;16.58;;
15637;SDS011;26604;53.596;10.042;2024-03-02T04:42:14;28.13;;;15.55;;
15637;SDS011;26604;53.596;10.042;2024-03-02T04:44:40;30.35;;;16.20;;
15637;SDS011;26604;53.596;10.042;2024-03-02T04:47:07;29.13;;;15.48;;
15637;SDS011;26604;53.596;10.042;2024-03-02T04:49:34;26.73;;;15.95;;
15637;SDS011;26604;53.596;10.042;2024-03-02T04:52:01;30.45;;;15.68;;
15637;SDS011;26604;53.596;10.042;2024-03-02T04:54:28;31.73;;;15.52;;
15637;SDS011;26604;53.596;10.042;2024-03-02T04:56:56;29.73;;;15.77;;
15637;SDS011;26604;53.596;10.042;2024-03-02T04:59:23;32.67;;;16.73;;
15637;SDS011;26604;53.596;10.042;2024-03-02T05:01:50;27.70;;;14.80;;
15637;SDS011;26604;53.596;10.042;2024-03-02T05:04:17;29.45;;;16.20;;
15637;SDS011;26604;53.596;10.042;2024-03-02T05:06:44;30.88;;;15.80;;
15637;SDS011;26604;53.596;10.042;2024-03-02T05:09:17;28.75;;;16.27;;
15637;SDS011;26604;53.596;10.042;2024-03-02T05:11:44;31.55;;;15.45;;
15637;SDS011;26604;53.596;10.042;2024-03-02T05:14:26;28.38;;;15.02;;
15637;SDS011;26604;53.596;10.042;2024-03-02T05:16:53;31.67;;;17.58;;
15637;SDS011;26604;53.596;10.042;2024-03-02T05:19:20;30.98;;;16.13;;
15637;SDS011;26604;53.596;10.042;2024-03-02T05:21:46;30.48;;;15.02;;
15637;SDS011;26604;53.596;10.042;2024-03-02T05:24:13;34.72;;;16.58;;
15637;SDS011;26604;53.596;10.042;2024-03-02T05:26:40;30.27;;;15.98;;
15637;SDS011;26604;53.596;10.042;2024-03-02T05:29:07;34.30;;;16.55;;
15637;SDS011;26604;53.596;10.042;2024-03-02T05:31:35;32.45;;;15.82;;
15637;SDS011;26604;53.596;10.042;2024-03-02T05:34:02;31.83;;;15.68;;
15637;SDS011;26604;53.596;10.042;2024-03-02T05:36:30;28.45;;;14.88;;
15637;SDS011;26604;53.596;10.042;2024-03-02T05:38:57;30.42;;;16.13;;
15637;SDS011;26604;53.596;10.042;2024-03-02T05:41:24;30.88;;;15.90;;
15637;SDS011;26604;53.596;10.042;2024-03-02T05:43:50;30.83;;;14.65;;
15637;SDS011;26604;53.596;10.042;2024-03-02T05:46:17;30.27;;;15.85;;
15637;SDS011;26604;53.596;10.042;2024-03-02T05:48:45;27.27;;;14.68;;
15637;SDS011;26604;53.596;10.042;2024-03-02T05:51:12;29.75;;;16.25;;
15637;SDS011;26604;53.596;10.042;2024-03-02T05:53:39;27.10;;;14.98;;
15637;SDS011;26604;53.596;10.042;2024-03-02T05:56:07;32.20;;;14.77;;
15637;SDS011;26604;53.596;10.042;2024-03-02T05:58:33;26.77;;;15.80;;
15637;SDS011;26604;53.596;10.042;2024-03-02T06:01:14;30.15;;;15.73;;
15637;SDS011;26604;53.596;10.042;2024-03-02T06:03:43;28.55;;;15.38;;
15637;SDS011;26604;53.596;10.042;2024-03-02T06:06:11;28.27;;;13.95;;
15637;SDS011;26604;53.596;10.042;2024-03-02T06:08:38;30.48;;;14.95;;
15637;SDS011;26604;53.596;10.042;2024-03-02T06:11:05;27.52;;;14.55;;
15637;SDS011;26604;53.596;10.042;2024-03-02T06:13:31;30.58;;;14.60;;
15637;SDS011;26604;53.596;10.042;2024-03-02T06:15:58;28.15;;;15.15;;
15637;SDS011;26604;53.596;10.042;2024-03-02T06:18:25;26.85;;;14.40;;
15637;SDS011;26604;53.596;10.042;2024-03-02T06:20:53;26.15;;;12.55;;
15637;SDS011;26604;53.596;10.042;2024-03-02T06:23:21;28.48;;;14.82;;
15637;SDS011;26604;53.596;10.042;2024-03-02T06:25:48;28.70;;;14.18;;
15637;SDS011;26604;53.596;10.042;2024-03-02T06:28:14;28.25;;;14.38;;
15637;SDS011;26604;53.596;10.042;2024-03-02T06:30:41;30.08;;;14.77;;
15637;SDS011;26604;53.596;10.042;2024-03-02T06:33:08;26.92;;;14.88;;
15637;SDS011;26604;53.596;10.042;2024-03-02T06:35:35;26.35;;;14.00;;
15637;SDS011;26604;53.596;10.042;2024-03-02T06:38:02;26.92;;;14.90;;
15637;SDS011;26604;53.596;10.042;2024-03-02T06:40:30;27.98;;;15.18;;
15637;SDS011;26604;53.596;10.042;2024-03-02T06:42:57;29.95;;;15.88;;
15637;SDS011;26604;53.596;10.042;2024-03-02T06:45:24;29.50;;;14.57;;
15637;SDS011;26604;53.596;10.042;2024-03-02T06:47:50;28.02;;;13.88;;
15637;SDS011;26604;53.596;10.042;2024-03-02T06:50:17;25.25;;;14.18;;
15637;SDS011;26604;53.596;10.042;2024-03-02T06:52:44;26.35;;;13.50;;
15637;SDS011;26604;53.596;10.042;2024-03-02T06:55:11;27.17;;;13.35;;
15637;SDS011;26604;53.596;10.042;2024-03-02T06:57:39;24.08;;;13.82;;
15637;SDS011;26604;53.596;10.042;2024-03-02T07:00:06;27.23;;;14.25;;
15637;SDS011;26604;53.596;10.042;2024-03-02T07:02:34;27.95;;;13.77;;
15637;SDS011;26604;53.596;10.042;2024-03-02T07:05:02;24.73;;;12.73;;
15637;SDS011;26604;53.596;10.042;2024-03-02T07:07:29;31.50;;;15.90;;
15637;SDS011;26604;53.596;10.042;2024-03-02T07:09:56;25.38;;;12.23;;
15637;SDS011;26604;53.596;10.042;2024-03-02T07:12:23;24.15;;;12.80;;
15637;SDS011;26604;53.596;10.042;2024-03-02T07:14:51;27.80;;;15.15;;
15637;SDS011;26604;53.596;10.042;2024-03-02T07:17:37;27.63;;;14.30;;
15637;SDS011;26604;53.596;10.042;2024-03-02T07:20:04;23.38;;;13.85;;
15637;SDS011;26604;53.596;10.042;2024-03-02T07:22:32;27.20;;;13.10;;
15637;SDS011;26604;53.596;10.042;2024-03-02T07:24:59;27.73;;;13.32;;
15637;SDS011;26604;53.596;10.042;2024-03-02T07:27:26;22.25;;;12.90;;
15637;SDS011;26604;53.596;10.042;2024-03-02T07:29:54;25.00;;;13.55;;
15637;SDS011;26604;53.596;10.042;2024-03-02T07:32:21;23.35;;;12.55;;
15637;SDS011;26604;53.596;10.042;2024-03-02T07:34:48;23.38;;;13.13;;
15637;SDS011;26604;53.596;10.042;2024-03-02T07:37:16;23.30;;;13.25;;
15637;SDS011;26604;53.596;10.042;2024-03-02T07:39:43;23.73;;;13.48;;
15637;SDS011;26604;53.596;10.042;2024-03-02T07:42:11;23.17;;;12.80;;
15637;SDS011;26604;53.596;10.042;2024-03-02T07:44:38;24.95;;;13.35;;
15637;SDS011;26604;53.596;10.042;2024-03-02T07:47:06;26.30;;;14.60;;
15637;SDS011;26604;53.596;10.042;2024-03-02T07:49:33;22.88;;;13.55;;
15637;SDS011;26604;53.596;10.042;2024-03-02T07:52:00;30.35;;;14.23;;
15637;SDS011;26604;53.596;10.042;2024-03-02T07:54:27;24.08;;;13.05;;
15637;SDS011;26604;53.596;10.042;2024-03-02T07:56:54;25.60;;;12.65;;
15637;SDS011;26604;53.596;10.042;2024-03-02T07:59:21;25.15;;;13.90;;
15637;SDS011;26604;53.596;10.042;2024-03-02T08:01:48;21.83;;;12.52;;
15637;SDS011;26604;53.596;10.042;2024-03-02T08:04:17;24.00;;;13.60;;
15637;SDS011;26604;53.596;10.042;2024-03-02T08:06:45;23.67;;;13.02;;
15637;SDS011;26604;53.596;10.042;2024-03-02T08:09:12;28.45;;;13.52;;
15637;SDS011;26604;53.596;10.042;2024-03-02T08:11:39;25.17;;;13.60;;
15637;SDS011;26604;53.596;10.042;2024-03-02T08:14:05;27.92;;;14.48;;
15637;SDS011;26604;53.596;10.042;2024-03-02T08:16:32;26.58;;;14.23;;
15637;SDS011;26604;53.596;10.042;2024-03-02T08:18:59;24.55;;;13.93;;
15637;SDS011;26604;53.596;10.042;2024-03-02T08:21:27;25.73;;;14.68;;
15637;SDS011;26604;53.596;10.042;2024-03-02T08:23:55;23.83;;;13.77;;
15637;SDS011;26604;53.596;10.042;2024-03-02T08:26:23;25.73;;;14.70;;
15637;SDS011;26604;53.596;10.042;2024-03-02T08:28:50;28.33;;;14.75;;
15637;SDS011;26604;53.596;10.042;2024-03-02T08:31:17;29.10;;;14.40;;
15637;SDS011;26604;53.596;10.042;2024-03-02T08:33:44;29.58;;;15.18;;
15637;SDS011;26604;53.596;10.042;2024-03-02T08:36:10;27.83;;;14.95;;
15637;SDS011;26604;53.596;10.042;2024-03-02T08:38:39;29.33;;;15.05;;
15637;SDS011;26604;53.596;10.042;2024-03-02T08:41:06;26.60;;;14.55;;
15637;SDS011;26604;53.596;10.042;2024-03-02T08:43:33;26.92;;;15.00;;
15637;SDS011;26604;53.596;10.042;2024-03-02T08:46:00;25.55;;;14.40;;
15637;SDS011;26604;53.596;10.042;2024-03-02T08:48:27;23.83;;;14.00;;
15637;SDS011;26604;53.596;10.042;2024-03-02T08:50:54;27.15;;;15.88;;
15637;SDS011;26604;53.596;10.042;2024-03-02T08:53:20;28.90;;;14.85;;
15637;SDS011;26604;53.596;10.042;2024-03-02T08:55:48;27.48;;;15.57;;
15637;SDS011;26604;53.596;10.042;2024-03-02T08:58:15;27.02;;;14.20;;
15637;SDS011;26604;53.596;10.042;2024-03-02T09:00:42;26.45;;;15.02;;
15637;SDS011;26604;53.596;10.042;2024-03-02T09:03:09;26.90;;;15.50;;
15637;SDS011;26604;53.596;10.042;2024-03-02T09:05:36;26.80;;;14.93;;
15637;SDS011;26604;53.596;10.042;2024-03-02T09:08:03;24.23;;;13.35;;
15637;SDS011;26604;53.596;10.042;2024-03-02T09:10:30;29.10;;;13.77;;
15637;SDS011;26604;53.596;10.042;2024-03-02T09:12:59;25.73;;;14.75;;
15637;SDS011;26604;53.596;10.042;2024-03-02T09:15:26;25.95;;;15.15;;
15637;SDS011;26604;53.596;10.042;2024-03-02T09:17:53;29.23;;;14.77;;
15637;SDS011;26604;53.596;10.042;2024-03-02T09:20:20;27.02;;;15.00;;
15637;SDS011;26604;53.596;10.042;2024-03-02T09:22:47;30.00;;;15.52;;
15637;SDS011;26604;53.596;10.042;2024-03-02T09:25:13;28.05;;;14.55;;
15637;SDS011;26604;53.596;10.042;2024-03-02T09:27:41;26.75;;;14.63;;
15637;SDS011;26604;53.596;10.042;2024-03-02T09:30:09;27.20;;;13.55;;
15637;SDS011;26604;53.596;10.042;2024-03-02T09:32:38;22.65;;;13.32;;
15637;SDS011;26604;53.596;10.042;2024-03-02T09:35:06;22.55;;;13.63;;
15637;SDS011;26604;53.596;10.042;2024-03-02T09:37:34;25.67;;;14.02;;
15637;SDS011;26604;53.596;10.042;2024-03-02T09:40:01;25.70;;;14.00;;
15637;SDS011;26604;53.596;10.042;2024-03-02T09:42:28;25.67;;;13.70;;
15637;SDS011;26604;53.596;10.042;2024-03-02T09:44:55;27.10;;;13.90;;
15637;SDS011;26604;53.596;10.042;2024-03-02T09:47:24;24.23;;;12.75;;
15637;SDS011;26604;53.596;10.042;2024-03-02T09:49:51;24.63;;;12.93;;
15637;SDS011;26604;53.596;10.042;2024-03-02T09:52:18;23.83;;;13.07;;
15637;SDS011;26604;53.596;10.042;2024-03-02T09:54:47;24.55;;;14.20;;
15637;SDS011;26604;53.596;10.042;2024-03-02T09:57:14;28.65;;;17.10;;
15637;SDS011;26604;53.596;10.042;2024-03-02T09:59:41;34.05;;;20.45;;
15637;SDS011;26604;53.596;10.042;2024-03-02T10:02:10;25.65;;;14.48;;
15637;SDS011;26604;53.596;10.042;2024-03-02T10:04:38;27.25;;;13.45;;
15637;SDS011;26604;53.596;10.042;2024-03-02T10:07:11;25.27;;;13.73;;
15637;SDS011;26604;53.596;10.042;2024-03-02T10:09:39;26.08;;;12.70;;
15637;SDS011;26604;53.596;10.042;2024-03-02T10:12:07;20.85;;;11.25;;
15637;SDS011;26604;53.596;10.042;2024-03-02T10:14:35;18.90;;;11.63;;
15637;SDS011;26604;53.596;10.042;2024-03-02T10:17:02;21.23;;;11.60;;
15637;SDS011;26604;53.596;10.042;2024-03-02T10:19:29;23.10;;;11.95;;
15637;SDS011;26604;53.596;10.042;2024-03-02T10:22:00;19.52;;;11.43;;
15637;SDS011;26604;53.596;10.042;2024-03-02T10:24:28;18.85;;;11.00;;
15637;SDS011;26604;53.596;10.042;2024-03-02T10:27:01;18.80;;;11.38;;
15637;SDS011;26604;53.596;10.042;2024-03-02T10:29:33;19.27;;;11.20;;
15637;SDS011;26604;53.596;10.042;2024-03-02T10:32:02;20.52;;;11.10;;
15637;SDS011;26604;53.596;10.042;2024-03-02T10:34:29;16.95;;;10.68;;
15637;SDS011;26604;53.596;10.042;2024-03-02T10:36:57;16.60;;;10.07;;
15637;SDS011;26604;53.596;10.042;2024-03-02T10:39:26;18.10;;;10.23;;
15637;SDS011;26604;53.596;10.042;2024-03-02T10:41:54;16.20;;;9.90;;
15637;SDS011;26604;53.596;10.042;2024-03-02T10:44:22;19.35;;;10.18;;
15637;SDS011;26604;53.596;10.042;2024-03-02T10:46:50;24.92;;;11.55;;
15637;SDS011;26604;53.596;10.042;2024-03-02T10:49:19;16.08;;;9.43;;
15637;SDS011;26604;53.596;10.042;2024-03-02T10:51:49;18.88;;;10.18;;
15637;SDS011;26604;53.596;10.042;2024-03-02T10:54:17;18.02;;;9.48;;
15637;SDS011;26604;53.596;10.042;2024-03-02T10:56:51;17.88;;;9.70;;
15637;SDS011;26604;53.596;10.042;2024-03-02T10:59:22;21.00;;;10.15;;
15637;SDS011;26604;53.596;10.042;2024-03-02T11:01:55;17.02;;;9.85;;
15637;SDS011;26604;53.596;10.042;2024-03-02T11:04:23;15.55;;;9.18;;
15637;SDS011;26604;53.596;10.042;2024-03-02T11:06:51;19.02;;;9.30;;
15637;SDS011;26604;53.596;10.042;2024-03-02T11:09:20;16.02;;;8.65;;
15637;SDS011;26604;53.596;10.042;2024-03-02T11:11:59;14.50;;;9.13;;
15637;SDS011;26604;53.596;10.042;2024-03-02T11:14:30;12.93;;;7.90;;
15637;SDS011;26604;53.596;10.042;2024-03-02T11:16:59;12.10;;;7.93;;
15637;SDS011;26604;53.596;10.042;2024-03-02T11:19:28;14.52;;;7.43;;
15637;SDS011;26604;53.596;10.042;2024-03-02T11:21:56;11.43;;;6.75;;
15637;SDS011;26604;53.596;10.042;2024-03-02T11:24:31;11.38;;;6.63;;
15637;SDS011;26604;53.596;10.042;2024-03-02T11:26:59;11.35;;;6.13;;
15637;SDS011;26604;53.596;10.042;2024-03-02T11:29:46;12.73;;;7.35;;
15637;SDS011;26604;53.596;10.042;2024-03-02T11:32:17;12.23;;;7.07;;
15637;SDS011;26604;53.596;10.042;2024-03-02T11:34:47;13.18;;;6.75;;
15637;SDS011;26604;53.596;10.042;2024-03-02T11:37:16;12.10;;;6.25;;
15637;SDS011;26604;53.596;10.042;2024-03-02T11:39:45;12.15;;;6.32;;
15637;SDS011;26604;53.596;10.042;2024-03-02T11:42:12;9.48;;;5.93;;
15637;SDS011;26604;53.596;10.042;2024-03-02T11:44:42;10.73;;;6.68;;
15637;SDS011;26604;53.596;10.042;2024-03-02T11:47:11;12.30;;;6.20;;
15637;SDS011;26604;53.596;10.042;2024-03-02T11:49:42;8.98;;;4.93;;
15637;SDS011;26604;53.596;10.042;2024-03-02T11:52:11;9.48;;;5.72;;
15637;SDS011;26604;53.596;10.042;2024-03-02T11:54:40;9.65;;;5.30;;
15637;SDS011;26604;53.596;10.042;2024-03-02T11:57:13;10.40;;;5.90;;
15637;SDS011;26604;53.596;10.042;2024-03-02T11:59:40;8.75;;;5.45;;
15637;SDS011;26604;53.596;10.042;2024-03-02T12:02:13;11.23;;;5.57;;
15637;SDS011;26604;53.596;10.042;2024-03-02T12:04:42;8.60;;;5.68;;
15637;SDS011;26604;53.596;10.042;2024-03-02T12:07:10;12.07;;;6.30;;
15637;SDS011;26604;53.596;10.042;2024-03-02T12:09:38;10.30;;;5.78;;
15637;SDS011;26604;53.596;10.042;2024-03-02T12:12:05;11.82;;;5.82;;
15637;SDS011;26604;53.596;10.042;2024-03-02T12:14:35;8.43;;;5.82;;
15637;SDS011;26604;53.596;10.042;2024-03-02T12:17:03;9.07;;;5.13;;
15637;SDS011;26604;53.596;10.042;2024-03-02T12:19:31;10.23;;;5.80;;
15637;SDS011;26604;53.596;10.042;2024-03-02T12:21:58;9.63;;;5.47;;
15637;SDS011;26604;53.596;10.042;2024-03-02T12:24:26;10.63;;;5.32;;
15637;SDS011;26604;53.596;10.042;2024-03-02T12:26:54;10.73;;;6.15;;
15637;SDS011;26604;53.596;10.042;2024-03-02T12:29:22;11.65;;;6.78;;
15637;SDS011;26604;53.596;10.042;2024-03-02T12:31:51;13.93;;;7.05;;
15637;SDS011;26604;53.596;10.042;2024-03-02T12:34:19;14.18;;;7.63;;
15637;SDS011;26604;53.596;10.042;2024-03-02T12:36:47;12.75;;;6.90;;
15637;SDS011;26604;53.596;10.042;2024-03-02T12:39:15;11.93;;;7.40;;
15637;SDS011;26604;53.596;10.042;2024-03-02T12:41:42;13.52;;;7.10;;
15637;SDS011;26604;53.596;10.042;2024-03-02T12:44:09;10.65;;;7.00;;
15637;SDS011;26604;53.596;10.042;2024-03-02T12:46:36;11.90;;;6.88;;
15637;SDS011;26604;53.596;10.042;2024-03-02T12:49:09;11.52;;;7.03;;
15637;SDS011;26604;53.596;10.042;2024-03-02T12:51:37;12.10;;;6.88;;
15637;SDS011;26604;53.596;10.042;2024-03-02T12:54:05;10.55;;;6.85;;
15637;SDS011;26604;53.596;10.042;2024-03-02T12:56:32;12.32;;;7.15;;
15637;SDS011;26604;53.596;10.042;2024-03-02T12:59:00;10.57;;;6.97;;
15637;SDS011;26604;53.596;10.042;2024-03-02T13:01:27;11.00;;;7.22;;
15637;SDS011;26604;53.596;10.042;2024-03-02T13:03:54;12.48;;;7.05;;
15637;SDS011;26604;53.596;10.042;2024-03-02T13:06:23;13.90;;;7.22;;
15637;SDS011;26604;53.596;10.042;2024-03-02T13:08:52;11.00;;;7.30;;
15637;SDS011;26604;53.596;10.042;2024-03-02T13:11:20;12.27;;;7.80;;
15637;SDS011;26604;53.596;10.042;2024-03-02T13:13:48;13.25;;;7.88;;
15637;SDS011;26604;53.596;10.042;2024-03-02T13:16:15;12.70;;;7.38;;
15637;SDS011;26604;53.596;10.042;2024-03-02T13:18:44;13.73;;;7.72;;
15637;SDS011;26604;53.596;10.042;2024-03-02T13:21:11;13.23;;;7.25;;
15637;SDS011;26604;53.596;10.042;2024-03-02T13:23:39;11.25;;;6.25;;
15637;SDS011;26604;53.596;10.042;2024-03-02T13:26:06;13.27;;;7.90;;
15637;SDS011;26604;53.596;10.042;2024-03-02T13:28:35;11.77;;;7.20;;
15637;SDS011;26604;53.596;10.042;2024-03-02T13:31:03;13.55;;;7.40;;
15637;SDS011;26604;53.596;10.042;2024-03-02T13:33:30;10.98;;;6.65;;
15637;SDS011;26604;53.596;10.042;2024-03-02T13:35:58;11.18;;;6.88;;
15637;SDS011;26604;53.596;10.042;2024-03-02T13:38:25;12.70;;;6.60;;
15637;SDS011;26604;53.596;10.042;2024-03-02T13:40:53;15.90;;;7.63;;
15637;SDS011;26604;53.596;10.042;2024-03-02T13:43:20;11.43;;;6.90;;
15637;SDS011;26604;53.596;10.042;2024-03-02T13:45:48;13.05;;;8.20;;
15637;SDS011;26604;53.596;10.042;2024-03-02T13:48:17;11.18;;;6.90;;
15637;SDS011;26604;53.596;10.042;2024-03-02T13:50:43;11.18;;;7.50;;
15637;SDS011;26604;53.596;10.042;2024-03-02T13:53:10;12.95;;;6.82;;
15637;SDS011;26604;53.596;10.042;2024-03-02T13:55:37;13.73;;;7.35;;
15637;SDS011;26604;53.596;10.042;2024-03-02T13:58:05;13.93;;;7.15;;
15637;SDS011;26604;53.596;10.042;2024-03-02T14:00:33;13.07;;;7.20;;
15637;SDS011;26604;53.596;10.042;2024-03-02T14:02:59;12.80;;;8.05;;
15637;SDS011;26604;53.596;10.042;2024-03-02T14:05:28;12.63;;;7.43;;
15637;SDS011;26604;53.596;10.042;2024-03-02T14:07:55;9.75;;;6.88;;
15637;SDS011;26604;53.596;10.042;2024-03-02T14:10:22;14.52;;;7.30;;
15637;SDS011;26604;53.596;10.042;2024-03-02T14:12:49;13.57;;;8.10;;
15637;SDS011;26604;53.596;10.042;2024-03-02T14:15:17;12.07;;;7.53;;
15637;SDS011;26604;53.596;10.042;2024-03-02T14:17:44;14.13;;;7.85;;
15637;SDS011;26604;53.596;10.042;2024-03-02T14:20:11;12.25;;;7.28;;